aviador You're here:

KGON Decoded Metar

GROTON/NEW LONDO in CT, USA
Report Time2018-07-19 18:56:00
UTC Time2018-07-19 19:09:47
Flight Rules vfr VFR
Wind180° at 08 kt
W.Decomp.*RWY 23: 6.5 kt HW 4.7 kt LCW
RWY 15: 5.8 kt HW 5.6 kt RCW
W.Rank180° ranks 15
Current wind is above 180° avg. (7.9)
Visibility9999 m
Phenomena:N/A
Clouds:N/A
Expected CloudBase > 3,600 ft AGL from Temp-Dew spread
CeilingNone
Temp23°C (ISA +8)
Dew Point14°C (57% RH)
AAT21.4°C
QNH1019 hPa
Density Alt955 ft
Elevation10 ft
Report Wrong Elevation
Raw Report
KGON 191856Z 18008KT 10SM CLR 23/14 A3008 RMK AO2 SLP185
T02280139=

Extra information for KGON:More info

Metar Taf Metar & Taf Last 4 Metars F.Rules Stats Wind Profile Meteogram Temp Stats Airport Information Weather charts Add Link Nearby VenuesMetar ALERT Operation Metar Decoded Social comments

AIRNAV info for KGON